sensor_id;sensor_type;location;lat;lon;timestamp;pressure;altitude;pressure_sealevel;temperature;humidity
21988;BME280;11158;53.404;-1.510;2024-02-28T00:02:09;100911.13;;;4.86;100.00
21988;BME280;11158;53.404;-1.510;2024-02-28T00:04:34;100913.78;;;4.83;100.00
21988;BME280;11158;53.404;-1.510;2024-02-28T00:07:00;100908.56;;;4.79;100.00
21988;BME280;11158;53.404;-1.510;2024-02-28T00:09:25;100916.50;;;4.77;100.00
21988;BME280;11158;53.404;-1.510;2024-02-28T00:11:51;100919.22;;;4.71;100.00
21988;BME280;11158;53.404;-1.510;2024-02-28T00:14:16;100928.00;;;4.68;100.00
21988;BME280;11158;53.404;-1.510;2024-02-28T00:16:43;100940.34;;;4.66;100.00
21988;BME280;11158;53.404;-1.510;2024-02-28T00:19:08;100956.28;;;4.57;100.00
21988;BME280;11158;53.404;-1.510;2024-02-28T00:21:34;100951.84;;;4.61;100.00
21988;BME280;11158;53.404;-1.510;2024-02-28T00:23:59;100951.03;;;4.54;100.00
21988;BME280;11158;53.404;-1.510;2024-02-28T00:26:25;100944.75;;;4.67;100.00
21988;BME280;11158;53.404;-1.510;2024-02-28T00:28:50;100939.50;;;4.64;100.00
21988;BME280;11158;53.404;-1.510;2024-02-28T00:31:16;100932.53;;;4.57;100.00
21988;BME280;11158;53.404;-1.510;2024-02-28T00:33:41;100935.19;;;4.54;100.00
21988;BME280;11158;53.404;-1.510;2024-02-28T00:36:06;100944.03;;;4.47;100.00
21988;BME280;11158;53.404;-1.510;2024-02-28T00:38:32;100940.47;;;4.51;100.00
21988;BME280;11158;53.404;-1.510;2024-02-28T00:40:57;100952.75;;;4.57;100.00
21988;BME280;11158;53.404;-1.510;2024-02-28T00:43:23;100953.66;;;4.54;100.00
21988;BME280;11158;53.404;-1.510;2024-02-28T00:45:48;100956.31;;;4.51;100.00
21988;BME280;11158;53.404;-1.510;2024-02-28T00:48:13;100951.03;;;4.49;100.00
21988;BME280;11158;53.404;-1.510;2024-02-28T00:50:39;100946.69;;;4.44;100.00
21988;BME280;11158;53.404;-1.510;2024-02-28T00:53:04;100937.97;;;4.36;100.00
21988;BME280;11158;53.404;-1.510;2024-02-28T00:55:30;100937.91;;;4.46;100.00
21988;BME280;11158;53.404;-1.510;2024-02-28T00:57:55;100946.69;;;4.44;100.00
21988;BME280;11158;53.404;-1.510;2024-02-28T01:00:20;100960.91;;;4.29;100.00
21988;BME280;11158;53.404;-1.510;2024-02-28T01:02:46;100964.41;;;4.29;100.00
21988;BME280;11158;53.404;-1.510;2024-02-28T01:05:11;100965.03;;;4.64;100.00
21988;BME280;11158;53.404;-1.510;2024-02-28T01:07:36;100963.31;;;4.60;100.00
21988;BME280;11158;53.404;-1.510;2024-02-28T01:10:03;100973.81;;;4.64;100.00
21988;BME280;11158;53.404;-1.510;2024-02-28T01:12:29;100967.66;;;4.65;100.00
21988;BME280;11158;53.404;-1.510;2024-02-28T01:14:54;100966.06;;;4.46;100.00
21988;BME280;11158;53.404;-1.510;2024-02-28T01:17:20;100981.94;;;4.38;100.00
21988;BME280;11158;53.404;-1.510;2024-02-28T01:19:45;100981.22;;;4.13;100.00
21988;BME280;11158;53.404;-1.510;2024-02-28T01:22:10;100989.16;;;4.07;100.00
21988;BME280;11158;53.404;-1.510;2024-02-28T01:24:38;100993.44;;;4.31;100.00
21988;BME280;11158;53.404;-1.510;2024-02-28T01:27:03;100991.66;;;4.28;100.00
21988;BME280;11158;53.404;-1.510;2024-02-28T01:29:29;100973.19;;;4.32;100.00
21988;BME280;11158;53.404;-1.510;2024-02-28T01:31:55;100966.13;;;4.34;100.00
21988;BME280;11158;53.404;-1.510;2024-02-28T01:34:20;100970.53;;;4.33;100.00
21988;BME280;11158;53.404;-1.510;2024-02-28T01:36:45;100973.00;;;4.56;100.00
21988;BME280;11158;53.404;-1.510;2024-02-28T01:39:11;100968.59;;;4.57;100.00
21988;BME280;11158;53.404;-1.510;2024-02-28T01:41:36;100971.41;;;4.32;100.00
21988;BME280;11158;53.404;-1.510;2024-02-28T01:44:02;100986.34;;;4.38;100.00
21988;BME280;11158;53.404;-1.510;2024-02-28T01:46:28;101004.03;;;4.19;100.00
21988;BME280;11158;53.404;-1.510;2024-02-28T01:48:55;100990.88;;;4.13;100.00
21988;BME280;11158;53.404;-1.510;2024-02-28T01:51:22;100988.31;;;4.02;100.00
21988;BME280;11158;53.404;-1.510;2024-02-28T01:53:50;100982.94;;;4.20;100.00
21988;BME280;11158;53.404;-1.510;2024-02-28T01:56:16;100976.03;;;4.01;100.00
21988;BME280;11158;53.404;-1.510;2024-02-28T01:58:46;100969.88;;;3.96;100.00
21988;BME280;11158;53.404;-1.510;2024-02-28T02:01:16;100981.34;;;3.91;100.00
21988;BME280;11158;53.404;-1.510;2024-02-28T02:03:45;100990.88;;;4.13;100.00
21988;BME280;11158;53.404;-1.510;2024-02-28T02:06:10;100990.84;;;4.19;100.00
21988;BME280;11158;53.404;-1.510;2024-02-28T02:08:37;100991.66;;;4.28;100.00
21988;BME280;11158;53.404;-1.510;2024-02-28T02:11:03;100983.75;;;4.30;100.00
21988;BME280;11158;53.404;-1.510;2024-02-28T02:13:29;100983.69;;;4.42;100.00
21988;BME280;11158;53.404;-1.510;2024-02-28T02:15:55;100966.84;;;4.57;100.00
21988;BME280;11158;53.404;-1.510;2024-02-28T02:18:20;100958.88;;;4.62;100.00
21988;BME280;11158;53.404;-1.510;2024-02-28T02:20:52;100945.75;;;4.57;100.00
21988;BME280;11158;53.404;-1.510;2024-02-28T02:23:19;100956.25;;;4.59;100.00
21988;BME280;11158;53.404;-1.510;2024-02-28T02:25:48;100962.47;;;4.55;100.00
21988;BME280;11158;53.404;-1.510;2024-02-28T02:28:14;100958.94;;;4.54;100.00
21988;BME280;11158;53.404;-1.510;2024-02-28T02:30:40;100977.44;;;4.53;100.00
21988;BME280;11158;53.404;-1.510;2024-02-28T02:33:10;100979.19;;;4.54;100.00
21988;BME280;11158;53.404;-1.510;2024-02-28T02:35:36;100965.09;;;4.53;100.00
21988;BME280;11158;53.404;-1.510;2024-02-28T02:38:01;100962.47;;;4.55;100.00
21988;BME280;11158;53.404;-1.510;2024-02-28T02:40:27;100958.09;;;4.52;100.00
21988;BME280;11158;53.404;-1.510;2024-02-28T02:42:52;100959.84;;;4.52;100.00
21988;BME280;11158;53.404;-1.510;2024-02-28T02:45:17;100959.00;;;4.46;100.00
21988;BME280;11158;53.404;-1.510;2024-02-28T02:47:43;100964.34;;;4.37;100.00
21988;BME280;11158;53.404;-1.510;2024-02-28T02:50:11;100966.19;;;4.27;100.00
21988;BME280;11158;53.404;-1.510;2024-02-28T02:52:37;100953.81;;;4.36;100.00
21988;BME280;11158;53.404;-1.510;2024-02-28T02:55:03;100943.28;;;4.29;100.00
21988;BME280;11158;53.404;-1.510;2024-02-28T02:57:28;100939.84;;;4.21;100.00
21988;BME280;11158;53.404;-1.510;2024-02-28T02:59:56;100939.81;;;4.23;100.00
21988;BME280;11158;53.404;-1.510;2024-02-28T03:02:21;100942.44;;;4.29;100.00
21988;BME280;11158;53.404;-1.510;2024-02-28T03:04:46;100935.34;;;4.34;100.00
21988;BME280;11158;53.404;-1.510;2024-02-28T03:07:12;100928.31;;;4.32;100.00
21988;BME280;11158;53.404;-1.510;2024-02-28T03:09:37;100921.34;;;4.24;100.00
21988;BME280;11158;53.404;-1.510;2024-02-28T03:12:03;100925.75;;;4.21;100.00
21988;BME280;11158;53.404;-1.510;2024-02-28T03:14:28;100933.72;;;4.16;100.00
21988;BME280;11158;53.404;-1.510;2024-02-28T03:16:53;100946.03;;;4.14;100.00
21988;BME280;11158;53.404;-1.510;2024-02-28T03:19:19;100953.09;;;4.09;100.00
21988;BME280;11158;53.404;-1.510;2024-02-28T03:21:45;100951.31;;;4.09;100.00
21988;BME280;11158;53.404;-1.510;2024-02-28T03:24:10;100947.00;;;3.99;100.00
21988;BME280;11158;53.404;-1.510;2024-02-28T03:26:35;100938.28;;;3.88;100.00
21988;BME280;11158;53.404;-1.510;2024-02-28T03:29:01;100932.09;;;3.94;100.00
21988;BME280;11158;53.404;-1.510;2024-02-28T03:31:27;100939.09;;;4.02;100.00
21988;BME280;11158;53.404;-1.510;2024-02-28T03:33:52;100949.59;;;4.08;100.00
21988;BME280;11158;53.404;-1.510;2024-02-28T03:36:17;100940.81;;;4.05;100.00
21988;BME280;11158;53.404;-1.510;2024-02-28T03:38:43;100939.22;;;3.78;100.00
21988;BME280;11158;53.404;-1.510;2024-02-28T03:41:09;100947.13;;;3.76;100.00
21988;BME280;11158;53.404;-1.510;2024-02-28T03:43:34;100938.31;;;3.80;100.00
21988;BME280;11158;53.404;-1.510;2024-02-28T03:46:00;100933.00;;;3.88;100.00
21988;BME280;11158;53.404;-1.510;2024-02-28T03:48:25;100942.69;;;3.84;100.00
21988;BME280;11158;53.404;-1.510;2024-02-28T03:50:50;100938.28;;;3.89;100.00
21988;BME280;11158;53.404;-1.510;2024-02-28T03:53:16;100950.50;;;4.00;100.00
21988;BME280;11158;53.404;-1.510;2024-02-28T03:55:41;100957.59;;;3.91;100.00
21988;BME280;11158;53.404;-1.510;2024-02-28T03:58:09;100937.38;;;3.92;100.00
21988;BME280;11158;53.404;-1.510;2024-02-28T04:00:34;100946.22;;;3.83;100.00
21988;BME280;11158;53.404;-1.510;2024-02-28T04:03:01;100936.50;;;3.87;100.00
21988;BME280;11158;53.404;-1.510;2024-02-28T04:05:26;100931.28;;;3.79;100.00
21988;BME280;11158;53.404;-1.510;2024-02-28T04:07:52;100932.22;;;3.72;100.00
21988;BME280;11158;53.404;-1.510;2024-02-28T04:10:17;100926.94;;;3.72;100.00
21988;BME280;11158;53.404;-1.510;2024-02-28T04:12:43;100930.44;;;3.72;100.00
21988;BME280;11158;53.404;-1.510;2024-02-28T04:15:11;100910.22;;;3.73;100.00
21988;BME280;11158;53.404;-1.510;2024-02-28T04:17:37;100897.91;;;3.80;100.00
21988;BME280;11158;53.404;-1.510;2024-02-28T04:20:03;100897.06;;;3.73;100.00
21988;BME280;11158;53.404;-1.510;2024-02-28T04:22:31;100895.38;;;3.63;100.00
21988;BME280;11158;53.404;-1.510;2024-02-28T04:24:56;100897.06;;;3.75;100.00
21988;BME280;11158;53.404;-1.510;2024-02-28T04:27:22;100889.19;;;3.65;100.00
21988;BME280;11158;53.404;-1.510;2024-02-28T04:29:47;100884.81;;;3.64;100.00
21988;BME280;11158;53.404;-1.510;2024-02-28T04:32:12;100887.41;;;3.67;100.00
21988;BME280;11158;53.404;-1.510;2024-02-28T04:34:38;100888.28;;;3.71;100.00
21988;BME280;11158;53.404;-1.510;2024-02-28T04:37:03;100876.88;;;3.72;100.00
21988;BME280;11158;53.404;-1.510;2024-02-28T04:39:29;100873.28;;;3.79;100.00
21988;BME280;11158;53.404;-1.510;2024-02-28T04:41:54;100875.91;;;3.82;100.00
21988;BME280;11158;53.404;-1.510;2024-02-28T04:44:20;100887.38;;;3.77;100.00
21988;BME280;11158;53.404;-1.510;2024-02-28T04:46:45;100872.44;;;3.76;100.00
21988;BME280;11158;53.404;-1.510;2024-02-28T04:49:10;100862.78;;;3.75;100.00
21988;BME280;11158;53.404;-1.510;2024-02-28T04:51:36;100883.88;;;3.75;100.00
21988;BME280;11158;53.404;-1.510;2024-02-28T04:54:01;100874.22;;;3.72;100.00
21988;BME280;11158;53.404;-1.510;2024-02-28T04:56:26;100876.81;;;3.77;100.00
21988;BME280;11158;53.404;-1.510;2024-02-28T04:58:52;100883.91;;;3.68;100.00
21988;BME280;11158;53.404;-1.510;2024-02-28T05:01:17;100874.28;;;3.64;100.00
21988;BME280;11158;53.404;-1.510;2024-02-28T05:03:42;100869.88;;;3.66;100.00
21988;BME280;11158;53.404;-1.510;2024-02-28T05:06:08;100880.31;;;3.80;100.00
21988;BME280;11158;53.404;-1.510;2024-02-28T05:08:33;100868.00;;;3.79;100.00
21988;BME280;11158;53.404;-1.510;2024-02-28T05:10:58;100859.28;;;3.74;100.00
21988;BME280;11158;53.404;-1.510;2024-02-28T05:13:24;100866.31;;;3.67;100.00
21988;BME280;11158;53.404;-1.510;2024-02-28T05:15:49;100846.97;;;3.75;100.00
21988;BME280;11158;53.404;-1.510;2024-02-28T05:18:16;100841.69;;;3.71;100.00
21988;BME280;11158;53.404;-1.510;2024-02-28T05:20:41;100837.34;;;3.66;100.00
21988;BME280;11158;53.404;-1.510;2024-02-28T05:23:07;100825.88;;;3.71;100.00
21988;BME280;11158;53.404;-1.510;2024-02-28T05:25:32;100819.75;;;3.69;100.00
21988;BME280;11158;53.404;-1.510;2024-02-28T05:27:57;100844.31;;;3.73;100.00
21988;BME280;11158;53.404;-1.510;2024-02-28T05:30:23;100827.63;;;3.74;100.00
21988;BME280;11158;53.404;-1.510;2024-02-28T05:32:48;100822.25;;;3.86;100.00
21988;BME280;11158;53.404;-1.510;2024-02-28T05:35:14;100840.78;;;3.79;100.00
21988;BME280;11158;53.404;-1.510;2024-02-28T05:37:39;100849.59;;;3.75;100.00
21988;BME280;11158;53.404;-1.510;2024-02-28T05:40:07;100847.88;;;3.70;100.00
21988;BME280;11158;53.404;-1.510;2024-02-28T05:42:32;100848.75;;;3.69;100.00
21988;BME280;11158;53.404;-1.510;2024-02-28T05:44:58;100856.63;;;3.72;100.00
21988;BME280;11158;53.404;-1.510;2024-02-28T05:47:23;100864.41;;;3.92;100.00
21988;BME280;11158;53.404;-1.510;2024-02-28T05:49:48;100849.50;;;3.87;100.00
21988;BME280;11158;53.404;-1.510;2024-02-28T05:52:14;100851.22;;;3.94;100.00
21988;BME280;11158;53.404;-1.510;2024-02-28T05:54:40;100852.19;;;3.85;100.00
21988;BME280;11158;53.404;-1.510;2024-02-28T05:57:05;100848.59;;;3.92;100.00
21988;BME280;11158;53.404;-1.510;2024-02-28T05:59:31;100853.84;;;3.94;100.00
21988;BME280;11158;53.404;-1.510;2024-02-28T06:01:56;100845.97;;;3.91;100.00
21988;BME280;11158;53.404;-1.510;2024-02-28T06:04:22;100816.13;;;3.84;100.00
21988;BME280;11158;53.404;-1.510;2024-02-28T06:06:47;100833.66;;;3.88;100.00
21988;BME280;11158;53.404;-1.510;2024-02-28T06:09:14;100842.50;;;3.86;100.00
21988;BME280;11158;53.404;-1.510;2024-02-28T06:11:39;100836.38;;;3.82;100.00
21988;BME280;11158;53.404;-1.510;2024-02-28T06:14:05;100821.38;;;3.89;100.00
21988;BME280;11158;53.404;-1.510;2024-02-28T06:16:30;100821.34;;;3.92;100.00
21988;BME280;11158;53.404;-1.510;2024-02-28T06:18:56;100820.47;;;3.95;100.00
21988;BME280;11158;53.404;-1.510;2024-02-28T06:21:22;100824.84;;;3.97;100.00
21988;BME280;11158;53.404;-1.510;2024-02-28T06:23:48;100818.72;;;3.92;100.00
21988;BME280;11158;53.404;-1.510;2024-02-28T06:26:15;100819.50;;;4.02;100.00
21988;BME280;11158;53.404;-1.510;2024-02-28T06:28:42;100817.63;;;4.19;100.00
21988;BME280;11158;53.404;-1.510;2024-02-28T06:31:13;100805.31;;;4.18;100.00
21988;BME280;11158;53.404;-1.510;2024-02-28T06:33:39;100802.66;;;4.20;100.00
21988;BME280;11158;53.404;-1.510;2024-02-28T06:36:04;100808.78;;;4.23;100.00
21988;BME280;11158;53.404;-1.510;2024-02-28T06:38:30;100801.66;;;4.33;100.00
21988;BME280;11158;53.404;-1.510;2024-02-28T06:40:55;100804.38;;;4.24;100.00
21988;BME280;11158;53.404;-1.510;2024-02-28T06:43:20;100811.47;;;4.17;100.00
21988;BME280;11158;53.404;-1.510;2024-02-28T06:45:46;100788.66;;;4.11;100.00
21988;BME280;11158;53.404;-1.510;2024-02-28T06:48:11;100809.75;;;4.11;100.00
21988;BME280;11158;53.404;-1.510;2024-02-28T06:50:36;100811.50;;;4.16;100.00
21988;BME280;11158;53.404;-1.510;2024-02-28T06:53:02;100806.25;;;4.09;100.00
21988;BME280;11158;53.404;-1.510;2024-02-28T06:55:27;100811.47;;;4.17;100.00
21988;BME280;11158;53.404;-1.510;2024-02-28T06:57:53;100811.38;;;4.25;100.00
21988;BME280;11158;53.404;-1.510;2024-02-28T07:00:18;100818.44;;;4.23;100.00
21988;BME280;11158;53.404;-1.510;2024-02-28T07:02:44;100817.66;;;4.16;100.00
21988;BME280;11158;53.404;-1.510;2024-02-28T07:05:09;100812.38;;;4.11;100.00
21988;BME280;11158;53.404;-1.510;2024-02-28T07:07:35;100817.66;;;4.13;100.00
21988;BME280;11158;53.404;-1.510;2024-02-28T07:10:02;100816.81;;;4.09;100.00
21988;BME280;11158;53.404;-1.510;2024-02-28T07:12:27;100822.97;;;4.08;100.00
21988;BME280;11158;53.404;-1.510;2024-02-28T07:14:52;100817.72;;;4.07;100.00
21988;BME280;11158;53.404;-1.510;2024-02-28T07:17:18;100808.03;;;4.07;100.00
21988;BME280;11158;53.404;-1.510;2024-02-28T07:19:43;100790.47;;;4.06;100.00
21988;BME280;11158;53.404;-1.510;2024-02-28T07:22:09;100800.13;;;4.06;100.00
21988;BME280;11158;53.404;-1.510;2024-02-28T07:24:34;100799.25;;;4.08;100.00
21988;BME280;11158;53.404;-1.510;2024-02-28T07:26:59;100792.19;;;4.14;100.00
21988;BME280;11158;53.404;-1.510;2024-02-28T07:29:25;100786.06;;;4.10;100.00
21988;BME280;11158;53.404;-1.510;2024-02-28T07:31:50;100783.34;;;4.16;100.00
21988;BME280;11158;53.404;-1.510;2024-02-28T07:34:16;100783.34;;;4.15;100.00
21988;BME280;11158;53.404;-1.510;2024-02-28T07:36:41;100773.72;;;4.14;100.00
21988;BME280;11158;53.404;-1.510;2024-02-28T07:39:06;100777.22;;;4.14;100.00
21988;BME280;11158;53.404;-1.510;2024-02-28T07:41:32;100784.22;;;4.17;100.00
21988;BME280;11158;53.404;-1.510;2024-02-28T07:43:57;100777.91;;;4.35;100.00
21988;BME280;11158;53.404;-1.510;2024-02-28T07:46:23;100778.72;;;4.40;100.00
21988;BME280;11158;53.404;-1.510;2024-02-28T07:48:49;100793.56;;;4.50;99.34
21988;BME280;11158;53.404;-1.510;2024-02-28T07:51:14;100781.25;;;4.50;99.78
21988;BME280;11158;53.404;-1.510;2024-02-28T07:53:40;100777.78;;;4.45;100.00
21988;BME280;11158;53.404;-1.510;2024-02-28T07:56:06;100773.41;;;4.46;100.00
21988;BME280;11158;53.404;-1.510;2024-02-28T07:58:31;100771.63;;;4.46;100.00
21988;BME280;11158;53.404;-1.510;2024-02-28T08:00:57;100766.34;;;4.48;100.00
21988;BME280;11158;53.404;-1.510;2024-02-28T08:03:22;100764.47;;;4.55;100.00
21988;BME280;11158;53.404;-1.510;2024-02-28T08:05:48;100762.69;;;4.58;99.93
21988;BME280;11158;53.404;-1.510;2024-02-28T08:08:14;100754.69;;;4.64;98.96
21988;BME280;11158;53.404;-1.510;2024-02-28T08:10:39;100759.00;;;4.73;97.38
21988;BME280;11158;53.404;-1.510;2024-02-28T08:13:04;100767.78;;;4.74;96.26
21988;BME280;11158;53.404;-1.510;2024-02-28T08:15:30;100756.38;;;4.72;97.18
21988;BME280;11158;53.404;-1.510;2024-02-28T08:17:56;100757.19;;;4.77;96.43
21988;BME280;11158;53.404;-1.510;2024-02-28T08:20:21;100742.22;;;4.79;94.11
21988;BME280;11158;53.404;-1.510;2024-02-28T08:22:47;100740.41;;;4.84;94.70
21988;BME280;11158;53.404;-1.510;2024-02-28T08:25:12;100733.28;;;4.87;95.29
21988;BME280;11158;53.404;-1.510;2024-02-28T08:27:39;100749.94;;;4.93;94.04
21988;BME280;11158;53.404;-1.510;2024-02-28T08:30:05;100753.53;;;4.88;93.58
21988;BME280;11158;53.404;-1.510;2024-02-28T08:32:34;100757.03;;;4.89;93.12
21988;BME280;11158;53.404;-1.510;2024-02-28T08:35:00;100749.97;;;4.91;92.38
21988;BME280;11158;53.404;-1.510;2024-02-28T08:37:25;100745.50;;;4.96;92.44
21988;BME280;11158;53.404;-1.510;2024-02-28T08:39:53;100744.63;;;4.97;93.12
21988;BME280;11158;53.404;-1.510;2024-02-28T08:42:22;100744.69;;;4.91;92.50
21988;BME280;11158;53.404;-1.510;2024-02-28T08:44:47;100739.19;;;5.06;91.80
21988;BME280;11158;53.404;-1.510;2024-02-28T08:47:13;100732.06;;;5.15;90.55
21988;BME280;11158;53.404;-1.510;2024-02-28T08:49:39;100731.50;;;5.50;85.77
21988;BME280;11158;53.404;-1.510;2024-02-28T08:52:04;100729.44;;;5.69;82.39
21988;BME280;11158;53.404;-1.510;2024-02-28T08:54:30;100732.91;;;5.74;81.51
21988;BME280;11158;53.404;-1.510;2024-02-28T08:56:55;100724.16;;;5.71;83.11
21988;BME280;11158;53.404;-1.510;2024-02-28T08:59:21;100736.47;;;5.73;82.92
21988;BME280;11158;53.404;-1.510;2024-02-28T09:01:48;100739.88;;;5.78;82.79
21988;BME280;11158;53.404;-1.510;2024-02-28T09:04:13;100739.88;;;5.78;82.96
21988;BME280;11158;53.404;-1.510;2024-02-28T09:06:39;100744.19;;;5.84;84.00
21988;BME280;11158;53.404;-1.510;2024-02-28T09:09:04;100732.78;;;5.80;84.90
21988;BME280;11158;53.404;-1.510;2024-02-28T09:11:29;100722.06;;;5.90;83.34
21988;BME280;11158;53.404;-1.510;2024-02-28T09:13:55;100723.75;;;5.95;82.54
21988;BME280;11158;53.404;-1.510;2024-02-28T09:16:20;100719.38;;;5.93;82.37
21988;BME280;11158;53.404;-1.510;2024-02-28T09:18:45;100719.38;;;5.96;82.33
21988;BME280;11158;53.404;-1.510;2024-02-28T09:21:11;100722.88;;;5.96;82.36
21988;BME280;11158;53.404;-1.510;2024-02-28T09:23:36;100725.50;;;5.98;83.09
21988;BME280;11158;53.404;-1.510;2024-02-28T09:26:05;100720.22;;;5.98;82.62
21988;BME280;11158;53.404;-1.510;2024-02-28T09:28:31;100708.69;;;6.00;81.34
21988;BME280;11158;53.404;-1.510;2024-02-28T09:30:56;100694.59;;;6.00;81.07
21988;BME280;11158;53.404;-1.510;2024-02-28T09:33:22;100696.28;;;6.04;82.96
21988;BME280;11158;53.404;-1.510;2024-02-28T09:35:48;100694.66;;;5.94;81.92
21988;BME280;11158;53.404;-1.510;2024-02-28T09:38:13;100694.75;;;5.87;82.35
21988;BME280;11158;53.404;-1.510;2024-02-28T09:40:39;100695.66;;;5.88;82.93
21988;BME280;11158;53.404;-1.510;2024-02-28T09:43:04;100693.00;;;5.88;81.94
21988;BME280;11158;53.404;-1.510;2024-02-28T09:45:30;100692.13;;;5.87;85.13
21988;BME280;11158;53.404;-1.510;2024-02-28T09:47:58;100686.84;;;5.86;83.52
21988;BME280;11158;53.404;-1.510;2024-02-28T09:50:28;100690.41;;;5.86;82.58
21988;BME280;11158;53.404;-1.510;2024-02-28T09:52:53;100689.56;;;5.84;84.27
21988;BME280;11158;53.404;-1.510;2024-02-28T09:55:20;100698.31;;;5.86;83.59
21988;BME280;11158;53.404;-1.510;2024-02-28T09:57:48;100697.38;;;5.91;82.99
21988;BME280;11158;53.404;-1.510;2024-02-28T10:00:16;100694.75;;;5.89;84.76
21988;BME280;11158;53.404;-1.510;2024-02-28T10:02:45;100681.63;;;5.84;84.91
21988;BME280;11158;53.404;-1.510;2024-02-28T10:05:11;100682.44;;;5.88;84.38
21988;BME280;11158;53.404;-1.510;2024-02-28T10:07:37;100658.53;;;5.96;84.18
21988;BME280;11158;53.404;-1.510;2024-02-28T10:10:03;100647.81;;;6.02;85.88
21988;BME280;11158;53.404;-1.510;2024-02-28T10:12:29;100647.84;;;6.00;85.32
21988;BME280;11158;53.404;-1.510;2024-02-28T10:14:54;100640.59;;;6.10;84.46
21988;BME280;11158;53.404;-1.510;2024-02-28T10:17:20;100630.03;;;6.09;85.79
21988;BME280;11158;53.404;-1.510;2024-02-28T10:19:45;100632.72;;;6.07;86.50
21988;BME280;11158;53.404;-1.510;2024-02-28T10:22:10;100623.88;;;6.08;86.41
21988;BME280;11158;53.404;-1.510;2024-02-28T10:24:36;100620.09;;;6.20;85.63
21988;BME280;11158;53.404;-1.510;2024-02-28T10:27:03;100612.16;;;6.20;86.43
21988;BME280;11158;53.404;-1.510;2024-02-28T10:29:29;100607.78;;;6.19;86.88
21988;BME280;11158;53.404;-1.510;2024-02-28T10:31:58;100603.91;;;6.35;85.98
21988;BME280;11158;53.404;-1.510;2024-02-28T10:34:24;100606.16;;;6.55;84.62
21988;BME280;11158;53.404;-1.510;2024-02-28T10:36:50;100606.38;;;6.43;84.67
21988;BME280;11158;53.404;-1.510;2024-02-28T10:39:17;100606.34;;;6.46;84.58
21988;BME280;11158;53.404;-1.510;2024-02-28T10:41:44;100593.09;;;6.46;84.11
21988;BME280;11158;53.404;-1.510;2024-02-28T10:44:12;100597.34;;;6.55;84.23
21988;BME280;11158;53.404;-1.510;2024-02-28T10:46:38;100599.00;;;6.59;84.45
21988;BME280;11158;53.404;-1.510;2024-02-28T10:49:08;100589.97;;;6.68;81.89
21988;BME280;11158;53.404;-1.510;2024-02-28T10:51:36;100587.22;;;6.74;81.85
21988;BME280;11158;53.404;-1.510;2024-02-28T10:56:34;100593.47;;;6.70;82.05
21988;BME280;11158;53.404;-1.510;2024-02-28T10:58:59;100603.75;;;6.83;83.32
21988;BME280;11158;53.404;-1.510;2024-02-28T11:01:27;100598.28;;;6.91;82.75
21988;BME280;11158;53.404;-1.510;2024-02-28T11:03:52;100594.88;;;6.84;83.37
21988;BME280;11158;53.404;-1.510;2024-02-28T11:06:20;100580.63;;;6.90;81.39
21988;BME280;11158;53.404;-1.510;2024-02-28T11:08:47;100583.38;;;6.86;82.19
21988;BME280;11158;53.404;-1.510;2024-02-28T11:11:19;100584.09;;;6.92;83.61
21988;BME280;11158;53.404;-1.510;2024-02-28T11:13:55;100586.09;;;6.82;83.72
21988;BME280;11158;53.404;-1.510;2024-02-28T11:16:31;100591.28;;;6.89;84.14
21988;BME280;11158;53.404;-1.510;2024-02-28T11:18:56;100587.00;;;6.83;83.24
21988;BME280;11158;53.404;-1.510;2024-02-28T11:21:23;100579.97;;;6.80;84.46
21988;BME280;11158;53.404;-1.510;2024-02-28T11:23:51;100576.50;;;6.78;86.62
21988;BME280;11158;53.404;-1.510;2024-02-28T11:26:16;100571.09;;;6.83;86.36
21988;BME280;11158;53.404;-1.510;2024-02-28T11:28:43;100573.56;;;6.91;85.38
21988;BME280;11158;53.404;-1.510;2024-02-28T11:31:08;100570.03;;;6.90;86.58
21988;BME280;11158;53.404;-1.510;2024-02-28T11:33:35;100569.00;;;6.96;86.56
21988;BME280;11158;53.404;-1.510;2024-02-28T11:36:01;100553.00;;;7.00;86.65
21988;BME280;11158;53.404;-1.510;2024-02-28T11:38:28;100558.13;;;7.08;87.89
21988;BME280;11158;53.404;-1.510;2024-02-28T11:40:54;100557.16;;;7.11;87.88
21988;BME280;11158;53.404;-1.510;2024-02-28T11:43:22;100550.53;;;7.29;86.83
21988;BME280;11158;53.404;-1.510;2024-02-28T11:45:48;100547.28;;;7.17;87.54
21988;BME280;11158;53.404;-1.510;2024-02-28T11:48:14;100541.84;;;7.23;87.17
21988;BME280;11158;53.404;-1.510;2024-02-28T11:50:39;100528.63;;;7.22;87.90
21988;BME280;11158;53.404;-1.510;2024-02-28T11:53:08;100511.59;;;7.31;88.09
21988;BME280;11158;53.404;-1.510;2024-02-28T11:55:34;100512.59;;;7.27;87.33
21988;BME280;11158;53.404;-1.510;2024-02-28T11:58:00;100503.94;;;7.20;88.25
21988;BME280;11158;53.404;-1.510;2024-02-28T12:00:25;100496.81;;;7.22;88.97
21988;BME280;11158;53.404;-1.510;2024-02-28T12:02:51;100490.03;;;7.45;88.37
21988;BME280;11158;53.404;-1.510;2024-02-28T12:05:19;100479.38;;;7.46;88.51
21988;BME280;11158;53.404;-1.510;2024-02-28T12:07:45;100476.63;;;7.49;87.19
21988;BME280;11158;53.404;-1.510;2024-02-28T12:10:11;100472.00;;;7.57;87.50
21988;BME280;11158;53.404;-1.510;2024-02-28T12:12:38;100464.03;;;7.87;86.15
21988;BME280;11158;53.404;-1.510;2024-02-28T12:15:05;100461.53;;;7.82;86.37
21988;BME280;11158;53.404;-1.510;2024-02-28T12:17:30;100454.13;;;7.94;83.73
21988;BME280;11158;53.404;-1.510;2024-02-28T12:19:56;100445.34;;;7.92;85.31
21988;BME280;11158;53.404;-1.510;2024-02-28T12:22:23;100431.53;;;8.10;83.87
21988;BME280;11158;53.404;-1.510;2024-02-28T12:24:49;100432.88;;;8.24;82.67
21988;BME280;11158;53.404;-1.510;2024-02-28T12:27:14;100408.16;;;8.21;83.80
21988;BME280;11158;53.404;-1.510;2024-02-28T12:29:40;100409.59;;;8.32;83.28
21988;BME280;11158;53.404;-1.510;2024-02-28T12:32:07;100392.84;;;8.30;81.77
21988;BME280;11158;53.404;-1.510;2024-02-28T12:34:32;100385.66;;;8.33;82.62
21988;BME280;11158;53.404;-1.510;2024-02-28T12:36:58;100378.97;;;8.21;82.01
21988;BME280;11158;53.404;-1.510;2024-02-28T12:39:25;100374.47;;;8.24;83.06